JTD545 EKBI-EKCH
Flight info
| Callsign | JTD545 |
|---|---|
| Flight time | 0h 27m |
| Altitude | 20000 |
| Route | ABINO T56 TESPI |
| Aircraft | B738/M-SDE2E3FGHIRWXY/LB1 |
Departure
| Time | 2026-04-25 23:00 |
|---|---|
| Airport | Billund Airport (EKBI) |
Arrival
| Time | 2026-04-25 23:28 |
|---|---|
| Airport | Copenhagen Kastrup Airport (EKCH) |
| Time | Latitude | Longitude | Altitude | Speed | Heading |
|---|---|---|---|---|---|
| 2026-04-25 22:20 | 55.74530 | 9.14815 | 218 ft | 0 kts | 357° |
| 2026-04-25 22:51 | 55.74511 | 9.14817 | 217 ft | 4 kts | 357° |
| 2026-04-25 22:51 | 55.74484 | 9.14819 | 215 ft | 4 kts | 6° |
| 2026-04-25 22:51 | 55.74460 | 9.14806 | 216 ft | 4 kts | 42° |
| 2026-04-25 22:52 | 55.74449 | 9.14773 | 219 ft | 2 kts | 86° |
| 2026-04-25 22:52 | 55.74448 | 9.14771 | 218 ft | 1 kts | 86° |
| 2026-04-25 22:55 | 55.74449 | 9.14795 | 218 ft | 5 kts | 86° |
| 2026-04-25 22:55 | 55.74452 | 9.14896 | 215 ft | 10 kts | 90° |
| 2026-04-25 22:55 | 55.74406 | 9.14978 | 219 ft | 10 kts | 171° |
| 2026-04-25 22:56 | 55.74336 | 9.14986 | 215 ft | 10 kts | 176° |
| 2026-04-25 22:56 | 55.74258 | 9.14994 | 215 ft | 9 kts | 177° |
| 2026-04-25 22:56 | 55.74209 | 9.15016 | 221 ft | 8 kts | 135° |
| 2026-04-25 22:56 | 55.74199 | 9.15126 | 215 ft | 12 kts | 86° |
| 2026-04-25 22:57 | 55.74205 | 9.15308 | 215 ft | 17 kts | 86° |
| 2026-04-25 22:57 | 55.74212 | 9.15546 | 215 ft | 20 kts | 87° |
| 2026-04-25 22:57 | 55.74220 | 9.15791 | 215 ft | 20 kts | 87° |
| 2026-04-25 22:57 | 55.74227 | 9.16029 | 215 ft | 19 kts | 86° |
| 2026-04-25 22:58 | 55.74234 | 9.16259 | 219 ft | 18 kts | 87° |
| 2026-04-25 22:58 | 55.74241 | 9.16481 | 215 ft | 18 kts | 87° |
| 2026-04-25 22:58 | 55.74248 | 9.16695 | 215 ft | 17 kts | 86° |
| 2026-04-25 22:58 | 55.74253 | 9.16858 | 222 ft | 9 kts | 91° |
| 2026-04-25 22:59 | 55.74206 | 9.16906 | 222 ft | 9 kts | 176° |
| 2026-04-25 22:59 | 55.74140 | 9.16911 | 215 ft | 10 kts | 184° |
| 2026-04-25 22:59 | 55.74087 | 9.16835 | 218 ft | 10 kts | 255° |
| 2026-04-25 22:59 | 55.74080 | 9.16662 | 222 ft | 30 kts | 267° |
| 2026-04-25 23:00 | 55.74053 | 9.15806 | 215 ft | 107 kts | 266° |
| 2026-04-25 23:00 | 55.73999 | 9.14101 | 305 ft | 160 kts | 268° |
| 2026-04-25 23:00 | 55.73963 | 9.12139 | 1206 ft | 159 kts | 277° |
| 2026-04-25 23:00 | 55.74412 | 9.10339 | 1803 ft | 166 kts | 323° |
| 2026-04-25 23:01 | 55.75431 | 9.09643 | 2674 ft | 154 kts | 4° |
| 2026-04-25 23:01 | 55.76426 | 9.10280 | 3355 ft | 164 kts | 31° |
| 2026-04-25 23:01 | 55.77374 | 9.11666 | 3804 ft | 185 kts | 39° |
| 2026-04-25 23:01 | 55.78334 | 9.13237 | 4312 ft | 194 kts | 39° |
| 2026-04-25 23:02 | 55.79332 | 9.14898 | 4927 ft | 198 kts | 39° |
| 2026-04-25 23:02 | 55.80346 | 9.16603 | 5463 ft | 209 kts | 39° |
| 2026-04-25 23:02 | 55.81474 | 9.18504 | 5664 ft | 238 kts | 40° |
| 2026-04-25 23:02 | 55.82509 | 9.20934 | 6237 ft | 259 kts | 65° |
| 2026-04-25 23:03 | 55.82701 | 9.24199 | 7017 ft | 273 kts | 86° |
| 2026-04-25 23:03 | 55.82636 | 9.27629 | 7746 ft | 280 kts | 86° |
| 2026-04-25 23:03 | 55.82494 | 9.31132 | 8488 ft | 290 kts | 91° |
| 2026-04-25 23:03 | 55.82131 | 9.34714 | 9255 ft | 298 kts | 94° |
| 2026-04-25 23:04 | 55.81692 | 9.38360 | 10008 ft | 305 kts | 95° |
| 2026-04-25 23:04 | 55.81232 | 9.42067 | 10543 ft | 318 kts | 94° |
| 2026-04-25 23:04 | 55.80747 | 9.46072 | 10707 ft | 343 kts | 95° |
| 2026-04-25 23:04 | 55.80236 | 9.50349 | 10965 ft | 362 kts | 95° |
| 2026-04-25 23:05 | 55.79705 | 9.54788 | 11523 ft | 371 kts | 95° |
| 2026-04-25 23:05 | 55.79164 | 9.59314 | 12180 ft | 378 kts | 95° |
| 2026-04-25 23:05 | 55.78614 | 9.63935 | 12878 ft | 385 kts | 94° |
| 2026-04-25 23:05 | 55.78057 | 9.68637 | 13543 ft | 392 kts | 94° |
| 2026-04-25 23:06 | 55.77491 | 9.73429 | 14216 ft | 398 kts | 93° |
| 2026-04-25 23:06 | 55.76918 | 9.78273 | 14898 ft | 403 kts | 93° |
| 2026-04-25 23:06 | 55.76347 | 9.83092 | 15606 ft | 407 kts | 93° |
| 2026-04-25 23:06 | 55.75759 | 9.88041 | 16313 ft | 411 kts | 93° |
| 2026-04-25 23:07 | 55.75164 | 9.93034 | 17005 ft | 416 kts | 93° |
| 2026-04-25 23:07 | 55.74559 | 9.98101 | 17697 ft | 421 kts | 93° |
| 2026-04-25 23:07 | 55.73948 | 10.03200 | 18377 ft | 425 kts | 93° |
| 2026-04-25 23:07 | 55.73328 | 10.08354 | 18964 ft | 430 kts | 93° |
| 2026-04-25 23:08 | 55.72698 | 10.13566 | 19584 ft | 433 kts | 93° |
| 2026-04-25 23:08 | 55.72061 | 10.18815 | 20126 ft | 437 kts | 92° |
| 2026-04-25 23:08 | 55.71413 | 10.24173 | 20135 ft | 447 kts | 92° |
| 2026-04-25 23:08 | 55.70758 | 10.29488 | 20001 ft | 436 kts | 92° |
| 2026-04-25 23:09 | 55.70110 | 10.34698 | 19643 ft | 430 kts | 92° |
| 2026-04-25 23:09 | 55.69468 | 10.39867 | 19186 ft | 428 kts | 92° |
| 2026-04-25 23:09 | 55.68838 | 10.44943 | 18740 ft | 425 kts | 92° |
| 2026-04-25 23:09 | 55.68206 | 10.50040 | 18258 ft | 423 kts | 93° |
| 2026-04-25 23:10 | 55.67576 | 10.55110 | 17732 ft | 420 kts | 93° |
| 2026-04-25 23:10 | 55.66947 | 10.60154 | 17237 ft | 418 kts | 93° |
| 2026-04-25 23:10 | 55.66319 | 10.65161 | 16762 ft | 415 kts | 93° |
| 2026-04-25 23:10 | 55.65694 | 10.70132 | 16295 ft | 412 kts | 93° |
| 2026-04-25 23:11 | 55.65070 | 10.75066 | 15834 ft | 408 kts | 93° |
| 2026-04-25 23:11 | 55.64450 | 10.79955 | 15362 ft | 405 kts | 94° |
| 2026-04-25 23:11 | 55.63834 | 10.84802 | 14911 ft | 402 kts | 94° |
| 2026-04-25 23:11 | 55.63222 | 10.89605 | 14459 ft | 399 kts | 94° |
| 2026-04-25 23:12 | 55.62620 | 10.94309 | 14014 ft | 396 kts | 94° |
| 2026-04-25 23:12 | 55.62013 | 10.99043 | 13516 ft | 394 kts | 94° |
| 2026-04-25 23:12 | 55.61407 | 11.03752 | 13024 ft | 390 kts | 94° |
| 2026-04-25 23:12 | 55.60805 | 11.08407 | 12566 ft | 386 kts | 95° |
| 2026-04-25 23:13 | 55.60207 | 11.13017 | 12116 ft | 382 kts | 95° |
| 2026-04-25 23:13 | 55.59612 | 11.17590 | 11671 ft | 378 kts | 95° |
| 2026-04-25 23:13 | 55.59022 | 11.22104 | 11275 ft | 374 kts | 96° |
| 2026-04-25 23:13 | 55.58440 | 11.26555 | 10872 ft | 369 kts | 96° |
| 2026-04-25 23:14 | 55.57874 | 11.30845 | 10722 ft | 356 kts | 96° |
| 2026-04-25 23:14 | 55.57318 | 11.35038 | 10579 ft | 345 kts | 96° |
| 2026-04-25 23:14 | 55.56779 | 11.39102 | 10425 ft | 335 kts | 96° |
| 2026-04-25 23:14 | 55.56256 | 11.43046 | 10289 ft | 325 kts | 96° |
| 2026-04-25 23:15 | 55.55748 | 11.46873 | 10150 ft | 316 kts | 96° |
| 2026-04-25 23:15 | 55.55253 | 11.50586 | 10092 ft | 303 kts | 96° |
| 2026-04-25 23:15 | 55.54775 | 11.54176 | 9727 ft | 302 kts | 96° |
| 2026-04-25 23:15 | 55.54297 | 11.57787 | 9427 ft | 300 kts | 96° |
| 2026-04-25 23:16 | 55.53821 | 11.61363 | 9117 ft | 298 kts | 96° |
| 2026-04-25 23:16 | 55.53346 | 11.64909 | 8834 ft | 295 kts | 97° |
| 2026-04-25 23:16 | 55.52874 | 11.68419 | 8551 ft | 292 kts | 97° |
| 2026-04-25 23:16 | 55.52407 | 11.71878 | 8260 ft | 286 kts | 97° |
| 2026-04-25 23:17 | 55.51952 | 11.75228 | 8002 ft | 276 kts | 97° |
| 2026-04-25 23:17 | 55.51510 | 11.78477 | 7757 ft | 271 kts | 97° |
| 2026-04-25 23:17 | 55.51072 | 11.81711 | 7486 ft | 270 kts | 98° |
| 2026-04-25 23:17 | 55.50642 | 11.84885 | 7227 ft | 268 kts | 98° |
| 2026-04-25 23:18 | 55.50207 | 11.88084 | 6965 ft | 267 kts | 98° |
| 2026-04-25 23:18 | 55.49774 | 11.91253 | 6719 ft | 265 kts | 98° |
| 2026-04-25 23:18 | 55.49343 | 11.94402 | 6470 ft | 263 kts | 99° |
| 2026-04-25 23:18 | 55.48914 | 11.97526 | 6216 ft | 261 kts | 99° |
| 2026-04-25 23:19 | 55.48487 | 12.00624 | 5951 ft | 259 kts | 99° |
| 2026-04-25 23:19 | 55.48062 | 12.03708 | 5691 ft | 258 kts | 99° |
| 2026-04-25 23:19 | 55.47639 | 12.06775 | 5409 ft | 257 kts | 99° |
| 2026-04-25 23:19 | 55.47214 | 12.09842 | 5109 ft | 257 kts | 99° |
| 2026-04-25 23:20 | 55.46793 | 12.12879 | 4822 ft | 253 kts | 98° |
| 2026-04-25 23:20 | 55.46379 | 12.15845 | 4544 ft | 245 kts | 98° |
| 2026-04-25 23:20 | 55.45982 | 12.18682 | 4427 ft | 231 kts | 98° |
| 2026-04-25 23:20 | 55.45608 | 12.21359 | 4300 ft | 219 kts | 97° |
| 2026-04-25 23:21 | 55.45251 | 12.23926 | 4218 ft | 216 kts | 97° |
| 2026-04-25 23:21 | 55.44895 | 12.26483 | 4146 ft | 217 kts | 97° |
| 2026-04-25 23:21 | 55.44534 | 12.29062 | 4054 ft | 216 kts | 97° |
| 2026-04-25 23:21 | 55.44174 | 12.31622 | 3971 ft | 214 kts | 98° |
| 2026-04-25 23:22 | 55.43828 | 12.34132 | 3857 ft | 207 kts | 94° |
| 2026-04-25 23:22 | 55.43977 | 12.36472 | 3684 ft | 183 kts | 50° |
| 2026-04-25 23:22 | 55.44866 | 12.37862 | 3610 ft | 174 kts | 33° |
| 2026-04-25 23:23 | 55.46620 | 12.40891 | 3152 ft | 171 kts | 35° |
| 2026-04-25 23:23 | 55.47517 | 12.42212 | 3054 ft | 169 kts | 35° |
| 2026-04-25 23:23 | 55.48419 | 12.43575 | 2929 ft | 172 kts | 36° |
| 2026-04-25 23:23 | 55.49306 | 12.44943 | 2708 ft | 170 kts | 36° |
| 2026-04-25 23:24 | 55.50183 | 12.46306 | 2477 ft | 166 kts | 36° |
| 2026-04-25 23:24 | 55.51038 | 12.47637 | 2232 ft | 160 kts | 36° |
| 2026-04-25 23:24 | 55.51845 | 12.48893 | 2011 ft | 149 kts | 35° |
| 2026-04-25 23:24 | 55.52597 | 12.50064 | 1818 ft | 138 kts | 34° |
| 2026-04-25 23:25 | 55.53310 | 12.51169 | 1628 ft | 136 kts | 34° |
| 2026-04-25 23:25 | 55.54016 | 12.52265 | 1475 ft | 132 kts | 34° |
| 2026-04-25 23:25 | 55.54698 | 12.53324 | 1244 ft | 129 kts | 34° |
| 2026-04-25 23:25 | 55.55378 | 12.54378 | 1061 ft | 131 kts | 34° |
| 2026-04-25 23:26 | 55.56074 | 12.55457 | 860 ft | 136 kts | 35° |
| 2026-04-25 23:26 | 55.56801 | 12.56586 | 675 ft | 141 kts | 36° |
| 2026-04-25 23:26 | 55.57541 | 12.57735 | 471 ft | 147 kts | 37° |
| 2026-04-25 23:26 | 55.58313 | 12.58947 | 281 ft | 148 kts | 37° |
| 2026-04-25 23:27 | 55.59090 | 12.60154 | 100 ft | 149 kts | 35° |
| 2026-04-25 23:27 | 55.59851 | 12.61319 | 23 ft | 135 kts | 40° |
| 2026-04-25 23:27 | 55.60462 | 12.62270 | 24 ft | 99 kts | 41° |
| 2026-04-25 23:27 | 55.60890 | 12.62932 | 25 ft | 64 kts | 41° |
| 2026-04-25 23:28 | 55.61098 | 12.63253 | 29 ft | 19 kts | 40° |
| 2026-04-25 23:28 | 55.61208 | 12.63330 | 26 ft | 17 kts | 355° |
| 2026-04-25 23:28 | 55.61333 | 12.63313 | 23 ft | 18 kts | 356° |
| 2026-04-25 23:28 | 55.61406 | 12.63349 | 24 ft | 10 kts | 40° |
| 2026-04-25 23:29 | 55.61464 | 12.63438 | 23 ft | 12 kts | 41° |
| 2026-04-25 23:29 | 55.61539 | 12.63554 | 24 ft | 16 kts | 41° |
| 2026-04-25 23:29 | 55.61622 | 12.63684 | 26 ft | 16 kts | 41° |
| 2026-04-25 23:29 | 55.61702 | 12.63807 | 24 ft | 15 kts | 41° |
| 2026-04-25 23:30 | 55.61788 | 12.63941 | 25 ft | 18 kts | 41° |
| 2026-04-25 23:30 | 55.61877 | 12.64073 | 23 ft | 15 kts | 32° |
| 2026-04-25 23:30 | 55.61967 | 12.64148 | 23 ft | 14 kts | 24° |
| 2026-04-25 23:30 | 55.62053 | 12.64221 | 23 ft | 13 kts | 25° |
| 2026-04-25 23:31 | 55.62146 | 12.64299 | 22 ft | 16 kts | 25° |
| 2026-04-25 23:31 | 55.62234 | 12.64365 | 23 ft | 10 kts | 1° |
| 2026-04-25 23:31 | 55.62283 | 12.64278 | 20 ft | 10 kts | 303° |
| 2026-04-25 23:31 | 55.62329 | 12.64154 | 19 ft | 15 kts | 303° |
| 2026-04-25 23:32 | 55.62388 | 12.63994 | 20 ft | 15 kts | 303° |
| 2026-04-25 23:32 | 55.62451 | 12.63845 | 21 ft | 15 kts | 318° |
| 2026-04-25 23:32 | 55.62541 | 12.63772 | 23 ft | 14 kts | 351° |
| 2026-04-25 23:32 | 55.62604 | 12.63777 | 23 ft | 14 kts | 13° |
| 2026-04-25 23:33 | 55.62687 | 12.63853 | 23 ft | 13 kts | 32° |
| 2026-04-25 23:33 | 55.62762 | 12.63940 | 23 ft | 12 kts | 33° |
| 2026-04-25 23:33 | 55.62829 | 12.63927 | 23 ft | 11 kts | 309° |
| 2026-04-25 23:33 | 55.62850 | 12.63805 | 24 ft | 10 kts | 283° |
| 2026-04-25 23:34 | 55.62863 | 12.63683 | 25 ft | 10 kts | 268° |
| 2026-04-25 23:34 | 55.62859 | 12.63564 | 23 ft | 10 kts | 266° |
| 2026-04-25 23:34 | 55.62877 | 12.63495 | 24 ft | 6 kts | 7° |
| 2026-04-25 23:34 | 55.62900 | 12.63521 | 24 ft | 2 kts | 38° |
| 2026-04-25 23:35 | 55.62903 | 12.63525 | 24 ft | 0 kts | 38° |